Time;durP1;ratioP1;P1;durP2;ratioP2;P2;SDS_P1;SDS_P2;PMS_P1;PMS_P2;Temp;Humidity;BMP_temperature;BMP_pressure;BME280_temperature;BME280_humidity;BME280_pressure;Samples;Min_cycle;Max_cycle;Signal;HPM_P1;HPM_P2
2022/11/28 00:02:22;;;;;;;;;;;;;;;4.79;100.00;100962.69;5065352;28;20005;-76
2022/11/28 00:04:50;;;;;;;;;;;;;;;4.79;100.00;100958.28;5066490;28;20061;-76
2022/11/28 00:07:16;;;;;;;;;;;;;;;4.78;100.00;100959.19;5067064;28;19932;-77
2022/11/28 00:09:41;;;;;;;;;;;;;;;4.79;100.00;100954.81;5053439;28;19951;-76
2022/11/28 00:12:07;;;;;;;;;;;;;;;4.80;100.00;100967.03;5066472;28;20496;-77
2022/11/28 00:14:32;;;;;;;;;;;;;;;4.80;100.00;100957.38;5066306;27;19932;-76
2022/11/28 00:16:57;;;;;;;;;;;;;;;4.80;100.00;100962.63;5067470;28;20486;-76
2022/11/28 00:19:23;;;;;;;;;;;;;;;4.80;100.00;100953.91;5066063;28;20516;-76
2022/11/28 00:21:48;;;;;;;;;;;;;;;4.81;100.00;100953.00;5065999;28;19932;-76
2022/11/28 00:24:14;;;;;;;;;;;;;;;4.81;100.00;100953.00;5053279;28;19929;-77
2022/11/28 00:26:40;;;;;;;;;;;;;;;4.80;100.00;100943.41;5065292;28;19994;-76
2022/11/28 00:29:05;;;;;;;;;;;;;;;4.81;100.00;100939.91;5048608;28;20624;-76
2022/11/28 00:31:32;;;;;;;;;;;;;;;4.80;100.00;100938.19;5052076;28;19928;-76
2022/11/28 00:33:58;;;;;;;;;;;;;;;4.80;100.00;100930.31;5039776;28;19977;-76
2022/11/28 00:36:23;;;;;;;;;;;;;;;4.80;100.00;100930.31;5065435;28;20486;-76
2022/11/28 00:38:49;;;;;;;;;;;;;;;4.78;100.00;100925.09;5066355;28;20422;-76
2022/11/28 00:41:18;;;;;;;;;;;;;;;4.79;100.00;100925.97;5065842;28;20033;-76
2022/11/28 00:43:44;;;;;;;;;;;;;;;4.79;100.00;100920.72;5048073;28;20386;-76
2022/11/28 00:46:10;;;;;;;;;;;;;;;4.78;100.00;100911.13;5046645;28;19934;-76
2022/11/28 00:48:36;;;;;;;;;;;;;;;4.78;100.00;100917.22;5052046;28;19929;-76
2022/11/28 00:51:11;;;;;;;;;;;;;;;4.77;100.00;100912.88;5064410;28;19931;-76
2022/11/28 00:53:39;;;;;;;;;;;;;;;4.75;100.00;100907.63;5047060;28;19924;-76
2022/11/28 00:56:05;;;;;;;;;;;;;;;4.76;100.00;100898.03;5052647;28;19935;-76
2022/11/28 00:58:31;;;;;;;;;;;;;;;4.76;100.00;100892.78;5047931;28;19924;-76
2022/11/28 01:00:56;;;;;;;;;;;;;;;4.74;100.00;100892.81;5065095;28;20386;-76
2022/11/28 01:03:22;;;;;;;;;;;;;;;4.73;100.00;100883.22;5051826;28;19951;-76
2022/11/28 01:05:47;;;;;;;;;;;;;;;4.73;100.00;100877.97;5063886;28;19928;-77
2022/11/28 01:08:12;;;;;;;;;;;;;;;4.73;100.00;100875.34;5066851;28;20007;-76
2022/11/28 01:10:39;;;;;;;;;;;;;;;4.73;100.00;100883.22;5066104;27;19932;-76
2022/11/28 01:13:05;;;;;;;;;;;;;;;4.72;100.00;100876.25;5063475;28;19928;-76
2022/11/28 01:15:30;;;;;;;;;;;;;;;4.73;100.00;100871.84;5064780;28;19928;-76
2022/11/28 01:17:56;;;;;;;;;;;;;;;4.72;100.00;100873.63;5065552;28;19967;-76
2022/11/28 01:20:21;;;;;;;;;;;;;;;4.72;100.00;100867.50;5065496;28;19928;-76
2022/11/28 01:22:46;;;;;;;;;;;;;;;4.71;100.00;100858.78;5065872;28;19927;-76
2022/11/28 01:25:12;;;;;;;;;;;;;;;4.70;100.00;100857.06;5067682;28;19977;-76
2022/11/28 01:27:37;;;;;;;;;;;;;;;4.70;100.00;100854.44;5063924;28;19932;-76
2022/11/28 01:30:03;;;;;;;;;;;;;;;4.70;100.00;100851.81;5064703;28;20337;-76
2022/11/28 01:32:28;;;;;;;;;;;;;;;4.70;100.00;100851.81;5070324;28;19932;-76
2022/11/28 01:34:54;;;;;;;;;;;;;;;4.71;100.00;100852.66;5062953;28;19959;-77
2022/11/28 01:37:19;;;;;;;;;;;;;;;4.71;100.00;100847.41;5064570;28;19932;-77
2022/11/28 01:39:44;;;;;;;;;;;;;;;4.70;100.00;100846.56;5062820;28;20408;-77
2022/11/28 01:42:17;;;;;;;;;;;;;;;4.72;100.00;100854.38;5064026;28;19977;-77
2022/11/28 01:44:48;;;;;;;;;;;;;;;4.71;100.00;100853.53;5064000;28;20050;-74
2022/11/28 01:47:14;;;;;;;;;;;;;;;4.72;100.00;100851.75;5064229;28;20013;-76
2022/11/28 01:49:39;;;;;;;;;;;;;;;4.73;100.00;100843.88;5051407;28;20018;-77
2022/11/28 01:52:09;;;;;;;;;;;;;;;4.73;100.00;100830.75;5065059;27;20402;-77
2022/11/28 01:54:34;;;;;;;;;;;;;;;4.73;100.00;100825.50;5063613;28;19928;-75
2022/11/28 01:57:00;;;;;;;;;;;;;;;4.75;100.00;100826.31;5064775;28;19938;-75
2022/11/28 01:59:26;;;;;;;;;;;;;;;4.75;100.00;100822.84;5050801;28;20624;-75
2022/11/28 02:01:52;;;;;;;;;;;;;;;4.78;100.00;100821.94;5051319;28;19928;-75
2022/11/28 02:04:17;;;;;;;;;;;;;;;4.77;100.00;100815.81;5045388;28;20290;-76
2022/11/28 02:06:43;;;;;;;;;;;;;;;4.79;100.00;100805.28;5063304;28;19924;-76
2022/11/28 02:09:12;;;;;;;;;;;;;;;4.79;100.00;100803.50;5062881;28;19963;-76
2022/11/28 02:11:37;;;;;;;;;;;;;;;4.81;100.00;100811.34;5050931;28;19931;-76
2022/11/28 02:14:13;;;;;;;;;;;;;;;4.81;100.00;100814.84;5067537;28;19928;-76
2022/11/28 02:16:38;;;;;;;;;;;;;;;4.82;100.00;100813.97;5063528;28;19927;-76
2022/11/28 02:19:25;;;;;;;;;;;;;;;4.84;100.00;100813.91;5062846;28;21412;-75
2022/11/28 02:22:02;;;;;;;;;;;;;;;4.85;100.00;100813.88;5064525;28;19924;-76
2022/11/28 02:24:34;;;;;;;;;;;;;;;4.86;100.00;100794.59;5063291;28;19930;-75
2022/11/28 02:27:08;;;;;;;;;;;;;;;4.89;100.00;100798.94;5062196;28;20015;-75
2022/11/28 02:29:53;;;;;;;;;;;;;;;4.90;100.00;100792.78;5070303;28;19928;-75
2022/11/28 02:32:27;;;;;;;;;;;;;;;4.91;100.00;100786.66;5064890;28;20021;-75
2022/11/28 02:34:58;;;;;;;;;;;;;;;4.94;100.00;100788.31;5063250;28;20685;-76
2022/11/28 02:37:33;;;;;;;;;;;;;;;4.94;100.00;100785.69;5064053;28;19955;-75
2022/11/28 02:40:07;;;;;;;;;;;;;;;4.95;100.00;100788.28;5066787;28;19951;-75
2022/11/28 02:42:51;;;;;;;;;;;;;;;4.97;100.00;100790.88;5063789;28;19924;-75
2022/11/28 02:45:17;;;;;;;;;;;;;;;4.99;100.00;100796.97;5062826;28;19928;-75
2022/11/28 02:47:57;;;;;;;;;;;;;;;4.99;100.00;100792.59;5064407;28;19974;-75
2022/11/28 02:50:28;;;;;;;;;;;;;;;5.02;100.00;100789.03;5050329;28;19928;-75
2022/11/28 02:53:02;;;;;;;;;;;;;;;5.05;100.00;100788.09;5062539;28;20425;-75
2022/11/28 02:55:28;;;;;;;;;;;;;;;5.06;100.00;100800.31;5062876;28;19924;-75
2022/11/28 02:57:53;;;;;;;;;;;;;;;5.07;100.00;100799.41;5062305;28;19958;-75
2022/11/28 03:00:30;;;;;;;;;;;;;;;5.09;100.00;100793.25;5050357;28;19928;-75
2022/11/28 03:03:09;;;;;;;;;;;;;;;5.10;100.00;100787.09;5049733;28;19924;-75
2022/11/28 03:05:41;;;;;;;;;;;;;;;5.12;100.00;100787.06;5062875;28;19928;-75
2022/11/28 03:08:06;;;;;;;;;;;;;;;5.12;100.00;100773.94;5064224;28;19972;-75
2022/11/28 03:10:34;;;;;;;;;;;;;;;5.14;100.00;100774.75;5062116;28;20031;-75
2022/11/28 03:13:03;;;;;;;;;;;;;;;5.16;100.00;100770.31;5045632;28;19924;-76
2022/11/28 03:15:33;;;;;;;;;;;;;;;5.16;100.00;100770.31;5063824;28;20054;-75
2022/11/28 03:18:05;;;;;;;;;;;;;;;5.18;100.00;100760.66;5063057;28;19932;-75
2022/11/28 03:20:45;;;;;;;;;;;;;;;5.19;100.00;100756.25;5046028;28;20445;-75
2022/11/28 03:23:12;;;;;;;;;;;;;;;5.20;100.00;100763.22;5050014;28;19935;-75
2022/11/28 03:25:47;;;;;;;;;;;;;;;5.20;100.00;100756.22;5044470;28;20750;-75
2022/11/28 03:28:30;;;;;;;;;;;;;;;5.22;100.00;100764.09;5047647;28;19934;-75
2022/11/28 03:30:55;;;;;;;;;;;;;;;5.21;100.00;100755.31;5061079;28;19924;-75
2022/11/28 03:33:21;;;;;;;;;;;;;;;5.22;100.00;100759.69;5062431;28;19958;-75
2022/11/28 03:35:48;;;;;;;;;;;;;;;5.24;100.00;100749.16;5047369;28;19920;-75
2022/11/28 03:38:20;;;;;;;;;;;;;;;5.24;100.00;100752.63;5061103;28;19935;-75
2022/11/28 03:40:49;;;;;;;;;;;;;;;5.24;100.00;100747.38;5062655;28;19977;-76
2022/11/28 03:43:16;;;;;;;;;;;;;;;5.25;100.00;100758.75;5050065;28;19973;-76
2022/11/28 03:45:49;;;;;;;;;;;;;;;5.27;100.00;100751.69;5062171;28;19932;-76
2022/11/28 03:48:16;;;;;;;;;;;;;;;5.28;100.00;100749.03;5050218;28;19928;-76
2022/11/28 03:50:46;;;;;;;;;;;;;;;5.28;100.00;100748.16;5062532;28;20005;-76
2022/11/28 03:53:22;;;;;;;;;;;;;;;5.28;100.00;100743.78;5049529;28;20003;-76
2022/11/28 03:55:48;;;;;;;;;;;;;;;5.30;100.00;100752.47;5062046;28;20028;-76
2022/11/28 03:58:34;;;;;;;;;;;;;;;5.32;100.00;100748.97;5062282;28;19931;-76
2022/11/28 04:00:59;;;;;;;;;;;;;;;5.34;100.00;100747.16;5063372;28;19935;-76
2022/11/28 04:03:45;;;;;;;;;;;;;;;5.34;100.00;100753.25;5061860;28;19971;-76
2022/11/28 04:06:16;;;;;;;;;;;;;;;5.36;100.00;100750.59;5061091;28;19924;-76
2022/11/28 04:08:42;;;;;;;;;;;;;;;5.36;100.00;100740.97;5063437;28;19924;-76
2022/11/28 04:11:12;;;;;;;;;;;;;;;5.38;100.00;100756.66;5061899;28;19928;-76
2022/11/28 04:13:37;;;;;;;;;;;;;;;5.39;100.00;100747.91;5061840;28;19928;-76
2022/11/28 04:16:03;;;;;;;;;;;;;;;5.40;100.00;100747.00;5064479;28;19924;-76
2022/11/28 04:18:47;;;;;;;;;;;;;;;5.41;100.00;100740.84;5053131;28;19993;-76
2022/11/28 04:21:18;;;;;;;;;;;;;;;5.42;100.00;100750.44;5065975;28;19960;-76
2022/11/28 04:23:43;;;;;;;;;;;;;;;5.44;100.00;100748.63;5067247;28;19930;-76
2022/11/28 04:26:16;;;;;;;;;;;;;;;5.45;100.00;100750.34;5048255;28;19924;-76
2022/11/28 04:28:42;;;;;;;;;;;;;;;5.47;100.00;100747.69;5064287;28;19928;-76
2022/11/28 04:31:07;;;;;;;;;;;;;;;5.48;100.00;100746.78;5052414;28;20355;-76
2022/11/28 04:33:34;;;;;;;;;;;;;;;5.49;100.00;100751.16;5065584;28;21834;-76
2022/11/28 04:35:59;;;;;;;;;;;;;;;5.50;100.00;100743.22;5065378;28;20104;-76
2022/11/28 04:38:25;;;;;;;;;;;;;;;5.52;100.00;100745.81;5048735;28;19931;-76
2022/11/28 04:41:00;;;;;;;;;;;;;;;5.53;100.00;100745.78;5065252;28;20302;-76
2022/11/28 04:43:27;;;;;;;;;;;;;;;5.54;100.00;100746.63;5065333;28;20042;-76
2022/11/28 04:45:54;;;;;;;;;;;;;;;5.56;100.00;100747.47;5064003;28;19955;-76
2022/11/28 04:48:19;;;;;;;;;;;;;;;5.56;100.00;100743.06;5066396;28;19966;-76
2022/11/28 04:51:03;;;;;;;;;;;;;;;5.57;100.00;100747.41;5069816;28;19928;-76
2022/11/28 04:53:30;;;;;;;;;;;;;;;5.60;100.00;100753.50;5064990;28;19924;-76
2022/11/28 04:55:57;;;;;;;;;;;;;;;5.61;100.00;100752.59;5066552;28;19928;-76
2022/11/28 04:58:42;;;;;;;;;;;;;;;5.62;100.00;100746.44;5064582;28;19992;-76
2022/11/28 05:01:08;;;;;;;;;;;;;;;5.64;100.00;100753.38;5065424;28;20751;-76
2022/11/28 05:03:34;;;;;;;;;;;;;;;5.66;100.00;100753.34;5064582;28;19943;-76
2022/11/28 05:05:59;;;;;;;;;;;;;;;5.66;100.00;100751.56;5050664;28;19930;-76
2022/11/28 05:08:24;;;;;;;;;;;;;;;5.68;100.00;100756.78;5064247;28;19927;-76
2022/11/28 05:10:49;;;;;;;;;;;;;;;5.68;100.00;100747.13;5065003;28;19928;-76
2022/11/28 05:13:15;;;;;;;;;;;;;;;5.71;100.00;100754.06;5065501;28;19944;-76
2022/11/28 05:15:40;;;;;;;;;;;;;;;5.72;100.00;100758.41;5064950;28;19932;-76
2022/11/28 05:18:05;;;;;;;;;;;;;;;5.74;100.00;100759.25;5052252;28;20364;-76
2022/11/28 05:20:31;;;;;;;;;;;;;;;5.75;100.00;100760.09;5047673;28;19936;-76
2022/11/28 05:22:56;;;;;;;;;;;;;;;5.76;100.00;100760.06;5064369;28;20504;-76
2022/11/28 05:25:21;;;;;;;;;;;;;;;5.77;100.00;100751.28;5064618;28;19932;-76
2022/11/28 05:27:47;;;;;;;;;;;;;;;5.79;100.00;100754.75;5065657;28;20026;-76
2022/11/28 05:30:12;;;;;;;;;;;;;;;5.80;100.00;100756.47;5064487;28;19932;-76
2022/11/28 05:32:38;;;;;;;;;;;;;;;5.81;100.00;100755.56;5049511;28;20630;-76
2022/11/28 05:35:03;;;;;;;;;;;;;;;5.82;100.00;100762.53;5064009;28;19935;-76
2022/11/28 05:37:29;;;;;;;;;;;;;;;5.84;100.00;100758.09;5064504;28;20080;-76
2022/11/28 05:39:54;;;;;;;;;;;;;;;5.86;100.00;100752.81;5065313;28;19967;-76
2022/11/28 05:42:19;;;;;;;;;;;;;;;5.88;100.00;100758.03;5064031;28;19968;-76
2022/11/28 05:44:46;;;;;;;;;;;;;;;5.89;100.00;100759.75;5065455;28;20356;-76
2022/11/28 05:47:12;;;;;;;;;;;;;;;5.90;100.00;100766.72;5063869;28;20276;-75
2022/11/28 05:49:37;;;;;;;;;;;;;;;5.91;100.00;100761.44;5049637;28;19978;-75
2022/11/28 05:52:02;;;;;;;;;;;;;;;5.92;100.00;100757.03;5063455;28;19924;-75
2022/11/28 05:54:29;;;;;;;;;;;;;;;5.94;100.00;100765.75;5064127;28;19943;-75
2022/11/28 05:56:54;;;;;;;;;;;;;;;5.96;100.00;100759.53;5047270;28;20311;-75
2022/11/28 05:59:20;;;;;;;;;;;;;;;5.97;100.00;100769.16;5063527;28;19978;-76
2022/11/28 06:01:45;;;;;;;;;;;;;;;5.98;100.00;100772.63;5063946;28;19955;-75
2022/11/28 06:04:10;;;;;;;;;;;;;;;6.00;100.00;100770.84;5063951;28;20006;-75
2022/11/28 06:06:36;;;;;;;;;;;;;;;6.02;100.00;100765.50;5065530;28;19924;-75
2022/11/28 06:09:04;;;;;;;;;;;;;;;6.04;100.00;100771.66;5064806;28;20452;-76
2022/11/28 06:11:30;;;;;;;;;;;;;;;6.05;100.00;100776.84;5045999;28;19924;-75
2022/11/28 06:13:55;;;;;;;;;;;;;;;6.07;100.00;100784.69;5063819;28;19967;-76
2022/11/28 06:16:22;;;;;;;;;;;;;;;6.08;100.00;100781.16;5064066;28;19967;-76
2022/11/28 06:18:47;;;;;;;;;;;;;;;6.08;100.00;100786.41;5063633;28;20524;-76
2022/11/28 06:21:13;;;;;;;;;;;;;;;6.12;100.00;100788.06;5049054;28;19932;-76
2022/11/28 06:23:38;;;;;;;;;;;;;;;6.13;100.00;100794.16;5063242;28;19935;-76
2022/11/28 06:26:08;;;;;;;;;;;;;;;6.14;100.00;100799.38;5062942;28;19928;-75
2022/11/28 06:28:33;;;;;;;;;;;;;;;6.16;100.00;100794.94;5063368;28;20000;-75
2022/11/28 06:30:58;;;;;;;;;;;;;;;6.17;100.00;100796.69;5062759;28;19940;-77
2022/11/28 06:33:24;;;;;;;;;;;;;;;6.18;100.00;100797.53;5063986;28;19939;-77
2022/11/28 06:35:49;;;;;;;;;;;;;;;6.18;100.00;100806.28;5063945;28;19935;-77
2022/11/28 06:38:14;;;;;;;;;;;;;;;6.21;100.00;100802.72;5064905;28;19971;-77
2022/11/28 06:40:40;;;;;;;;;;;;;;;6.20;100.00;100801.84;5062833;28;20371;-75
2022/11/28 06:43:05;;;;;;;;;;;;;;;6.21;100.00;100797.47;5063021;28;20062;-76
2022/11/28 06:45:32;;;;;;;;;;;;;;;6.21;100.00;100795.69;5044581;28;19963;-76
2022/11/28 06:47:57;;;;;;;;;;;;;;;6.21;100.00;100800.94;5045164;28;19931;-76
2022/11/28 06:50:23;;;;;;;;;;;;;;;6.21;100.00;100794.84;5064328;28;19924;-76
2022/11/28 06:52:48;;;;;;;;;;;;;;;6.23;100.00;100800.91;5062978;28;19925;-76
2022/11/28 06:55:13;;;;;;;;;;;;;;;6.22;100.00;100802.66;5035832;28;20332;-76
2022/11/28 06:57:39;;;;;;;;;;;;;;;6.24;100.00;100803.50;5044850;28;20003;-75
2022/11/28 07:00:05;;;;;;;;;;;;;;;6.24;100.00;100811.38;5064106;28;19934;-75
2022/11/28 07:02:30;;;;;;;;;;;;;;;6.25;100.00;100802.59;5063090;28;20069;-75
2022/11/28 07:04:55;;;;;;;;;;;;;;;6.25;100.00;100806.97;5050630;28;19967;-74
2022/11/28 07:07:20;;;;;;;;;;;;;;;6.27;100.00;100806.94;5063687;28;19928;-75
2022/11/28 07:09:46;;;;;;;;;;;;;;;6.27;100.00;100804.31;5044814;28;19924;-76
2022/11/28 07:12:20;;;;;;;;;;;;;;;6.28;100.00;100806.91;5062999;28;20029;-76
2022/11/28 07:14:51;;;;;;;;;;;;;;;6.29;100.00;100807.75;5061675;28;19932;-76
2022/11/28 07:17:16;;;;;;;;;;;;;;;6.28;100.00;100812.16;5062526;28;20013;-76
2022/11/28 07:19:42;;;;;;;;;;;;;;;6.30;100.00;100815.59;5062667;28;19940;-76
2022/11/28 07:22:08;;;;;;;;;;;;;;;6.29;100.00;100811.25;5061573;28;20607;-76
2022/11/28 07:24:34;;;;;;;;;;;;;;;6.31;100.00;100804.16;5064103;28;19928;-76
2022/11/28 07:26:59;;;;;;;;;;;;;;;6.31;100.00;100812.06;5062671;28;20457;-76
2022/11/28 07:29:29;;;;;;;;;;;;;;;6.32;100.00;100805.03;5062575;28;20440;-76
2022/11/28 07:31:54;;;;;;;;;;;;;;;6.31;100.00;100814.69;5062534;28;19970;-76
2022/11/28 07:34:20;;;;;;;;;;;;;;;6.32;100.00;100811.16;5044431;28;19951;-76
2022/11/28 07:36:45;;;;;;;;;;;;;;;6.32;100.00;100819.03;5062669;28;20403;-76
2022/11/28 07:39:11;;;;;;;;;;;;;;;6.32;100.00;100821.66;5061052;28;19935;-76
2022/11/28 07:41:36;;;;;;;;;;;;;;;6.32;100.00;100811.16;5035204;28;20363;-76
2022/11/28 07:44:02;;;;;;;;;;;;;;;6.34;100.00;100819.00;5062224;28;19936;-76
2022/11/28 07:46:28;;;;;;;;;;;;;;;6.35;100.00;100829.50;5062308;28;19928;-76
2022/11/28 07:48:54;;;;;;;;;;;;;;;6.35;100.00;100826.84;5062392;28;20387;-76
2022/11/28 07:51:20;;;;;;;;;;;;;;;6.36;100.00;100831.22;5062303;28;19928;-76
2022/11/28 07:53:48;;;;;;;;;;;;;;;6.37;100.00;100835.56;5062396;28;19934;-76
2022/11/28 07:56:17;;;;;;;;;;;;;;;6.37;100.00;100832.94;5063917;28;19925;-76
2022/11/28 07:58:43;;;;;;;;;;;;;;;6.38;100.00;100836.44;5066792;28;20023;-76
2022/11/28 08:01:27;;;;;;;;;;;;;;;6.38;100.00;100832.00;5065916;28;19928;-76
2022/11/28 08:03:53;;;;;;;;;;;;;;;6.39;100.00;100832.91;5066291;28;19934;-76
2022/11/28 08:06:19;;;;;;;;;;;;;;;6.41;100.00;100840.72;5052896;28;20591;-76
2022/11/28 08:08:45;;;;;;;;;;;;;;;6.41;100.00;100840.72;5052878;28;20043;-76
2022/11/28 08:11:11;;;;;;;;;;;;;;;6.41;100.00;100840.72;5065064;28;19959;-76
2022/11/28 08:13:37;;;;;;;;;;;;;;;6.42;100.00;100837.22;5066056;28;20335;-76
2022/11/28 08:16:05;;;;;;;;;;;;;;;6.43;100.00;100839.78;5053315;28;20485;-76
2022/11/28 08:18:30;;;;;;;;;;;;;;;6.43;100.00;100836.28;5049356;28;19935;-77
2022/11/28 08:21:22;;;;;;;;;;;;;;;6.46;100.00;100841.47;5065548;28;19958;-77
2022/11/28 08:23:47;;;;;;;;;;;;;;;6.47;100.00;100848.44;5065550;28;19928;-78
2022/11/28 08:26:14;;;;;;;;;;;;;;;6.48;100.00;100858.09;5052288;28;19935;-77
2022/11/28 08:28:39;;;;;;;;;;;;;;;6.48;100.00;100855.44;5035609;28;19924;-78
2022/11/28 08:31:12;;;;;;;;;;;;;;;6.50;100.00;100851.00;5063779;28;19977;-78
2022/11/28 08:33:37;;;;;;;;;;;;;;;6.52;100.00;100852.69;5051864;28;19940;-77
2022/11/28 08:36:04;;;;;;;;;;;;;;;6.51;100.00;100843.06;5060097;28;19933;-77
2022/11/28 08:38:29;;;;;;;;;;;;;;;6.54;100.00;100843.88;5063222;28;20294;-77
2022/11/28 08:41:09;;;;;;;;;;;;;;;6.56;100.00;100856.09;5060327;28;19924;-78
2022/11/28 08:43:35;;;;;;;;;;;;;;;6.58;100.00;100849.00;5064077;28;19939;-78
2022/11/28 08:46:01;;;;;;;;;;;;;;;6.61;100.00;100856.81;5045581;28;19932;-77
2022/11/28 08:48:27;;;;;;;;;;;;;;;6.65;100.00;100861.06;5061554;28;19977;-77
2022/11/28 08:50:53;;;;;;;;;;;;;;;6.69;100.00;100863.63;5065123;28;19924;-78
2022/11/28 08:53:18;;;;;;;;;;;;;;;6.71;100.00;100864.44;5064116;28;19924;-90
2022/11/28 08:55:44;;;;;;;;;;;;;;;6.73;100.00;100867.88;5047266;28;20315;-77
2022/11/28 08:58:09;;;;;;;;;;;;;;;6.75;100.00;100860.81;5033564;28;19932;-77
2022/11/28 09:00:35;;;;;;;;;;;;;;;6.77;100.00;100865.13;5064086;28;19961;-77
2022/11/28 09:03:00;;;;;;;;;;;;;;;6.78;100.00;100871.25;5064742;28;19928;-77
2022/11/28 09:05:27;;;;;;;;;;;;;;;6.80;100.00;100861.53;5061164;28;19924;-76
2022/11/28 09:07:53;;;;;;;;;;;;;;;6.81;100.00;100868.50;5060912;28;20022;-77
2022/11/28 09:10:18;;;;;;;;;;;;;;;6.85;100.00;100877.19;5064207;28;19932;-77
2022/11/28 09:12:43;;;;;;;;;;;;;;;6.86;100.00;100884.19;5061281;27;19962;-77
2022/11/28 09:15:09;;;;;;;;;;;;;;;6.88;100.00;100888.50;5057684;27;19932;-75
2022/11/28 09:17:34;;;;;;;;;;;;;;;6.91;100.00;100888.41;5063829;28;20425;-75
2022/11/28 09:20:05;;;;;;;;;;;;;;;6.93;100.00;100891.84;5063262;28;20836;-75
2022/11/28 09:22:30;;;;;;;;;;;;;;;6.95;100.00;100891.81;5062466;28;19928;-75
2022/11/28 09:24:56;;;;;;;;;;;;;;;6.96;100.00;100893.53;5064152;28;20836;-74
2022/11/28 09:27:23;;;;;;;;;;;;;;;6.98;100.00;100904.88;5063098;28;20461;-83
2022/11/28 09:29:49;;;;;;;;;;;;;;;7.00;100.00;100896.94;5060690;28;19936;-74
2022/11/28 09:32:14;;;;;;;;;;;;;;;7.03;100.00;100905.59;5037859;28;20080;-74
2022/11/28 09:34:40;;;;;;;;;;;;;;;7.05;100.00;100900.31;5053177;28;19924;-74
2022/11/28 09:37:05;;;;;;;;;;;;;;;7.07;100.00;100903.75;5052347;28;20818;-74
2022/11/28 09:39:30;;;;;;;;;;;;;;;7.09;100.00;100895.81;5051165;28;20175;-74
2022/11/28 09:42:01;;;;;;;;;;;;;;;7.09;100.00;100901.06;5037845;28;20462;-74
2022/11/28 09:44:53;;;;;;;;;;;;;;;7.10;100.00;100903.66;5051543;28;19971;-76
2022/11/28 09:47:20;;;;;;;;;;;;;;;7.11;100.00;100915.91;5014546;28;20300;-75
2022/11/28 09:49:57;;;;;;;;;;;;;;;7.10;100.00;100916.84;5053183;28;19925;-75
2022/11/28 09:52:22;;;;;;;;;;;;;;;7.10;100.00;100918.59;5053509;28;19934;-75
2022/11/28 09:55:06;;;;;;;;;;;;;;;7.10;100.00;100919.47;5051203;28;19933;-76
2022/11/28 09:57:33;;;;;;;;;;;;;;;7.10;100.00;100924.72;5069753;28;19952;-75
2022/11/28 09:59:59;;;;;;;;;;;;;;;7.11;100.00;100921.19;5050345;28;19924;-75
2022/11/28 10:02:25;;;;;;;;;;;;;;;7.11;100.00;100925.56;5053629;28;19928;-76
2022/11/28 10:05:03;;;;;;;;;;;;;;;7.14;100.00;100925.50;5056172;28;20430;-75
2022/11/28 10:07:47;;;;;;;;;;;;;;;7.15;100.00;100928.06;5054059;28;19950;-75
2022/11/28 10:10:20;;;;;;;;;;;;;;;7.16;100.00;100926.31;5058357;28;19952;-75
2022/11/28 10:12:56;;;;;;;;;;;;;;;7.18;100.00;100930.63;5055332;28;20315;-75
2022/11/28 10:15:24;;;;;;;;;;;;;;;7.19;100.00;100932.34;5040608;28;19940;-75
2022/11/28 10:17:56;;;;;;;;;;;;;;;7.20;100.00;100936.69;5055012;28;19951;-75
2022/11/28 10:20:25;;;;;;;;;;;;;;;7.24;100.00;100926.09;5056166;28;20046;-75
2022/11/28 10:23:01;;;;;;;;;;;;;;;7.25;100.00;100933.06;5053919;28;19931;-75
2022/11/28 10:25:34;;;;;;;;;;;;;;;7.27;100.00;100936.50;5055837;28;20623;-86
2022/11/28 10:28:00;;;;;;;;;;;;;;;7.28;100.00;100935.59;5053234;28;19931;-76
2022/11/28 10:30:32;;;;;;;;;;;;;;;7.28;100.00;100933.84;5049803;28;19993;-75
2022/11/28 10:33:03;;;;;;;;;;;;;;;7.29;100.00;100940.84;5056423;28;21508;-76
2022/11/28 10:35:39;;;;;;;;;;;;;;;7.30;100.00;100939.06;5049371;28;19924;-75
2022/11/28 10:38:11;;;;;;;;;;;;;;;7.31;100.00;100938.16;5054200;28;19928;-75
2022/11/28 10:40:40;;;;;;;;;;;;;;;7.30;100.00;100946.97;5053541;28;19928;-75
2022/11/28 10:43:15;;;;;;;;;;;;;;;7.29;100.00;100938.19;5038734;28;19931;-75
2022/11/28 10:45:46;;;;;;;;;;;;;;;7.30;100.00;100942.56;5055080;28;20023;-75
2022/11/28 10:48:32;;;;;;;;;;;;;;;7.30;100.00;100945.19;5059700;28;22592;-74
2022/11/28 10:51:04;;;;;;;;;;;;;;;7.31;100.00;100939.00;5067900;28;19924;-74
2022/11/28 10:53:47;;;;;;;;;;;;;;;7.32;100.00;100939.88;5054027;28;19929;-74
2022/11/28 10:56:29;;;;;;;;;;;;;;;7.33;100.00;100936.34;5052783;28;19928;-75
2022/11/28 10:58:57;;;;;;;;;;;;;;;7.33;100.00;100942.47;5053439;28;19929;-74
2022/11/28 11:01:22;;;;;;;;;;;;;;;7.36;100.00;100945.91;5051734;28;19924;-74
2022/11/28 11:03:47;;;;;;;;;;;;;;;7.35;100.00;100945.03;5052288;28;20162;-74
2022/11/28 11:06:13;;;;;;;;;;;;;;;7.37;100.00;100947.63;5055003;28;20367;-74
2022/11/28 11:08:39;;;;;;;;;;;;;;;7.37;100.00;100942.38;5053277;28;19924;-75
2022/11/28 11:11:23;;;;;;;;;;;;;;;7.38;100.00;100942.34;5053040;28;19981;-74
2022/11/28 11:13:56;;;;;;;;;;;;;;;7.39;100.00;100936.16;5054785;28;19975;-75
2022/11/28 11:16:21;;;;;;;;;;;;;;;7.38;100.00;100944.09;5052309;28;19935;-75
2022/11/28 11:18:46;;;;;;;;;;;;;;;7.38;100.00;100944.97;5054752;28;19924;-74
2022/11/28 11:21:16;;;;;;;;;;;;;;;7.38;100.00;100949.34;5055653;28;19936;-75
2022/11/28 11:23:42;;;;;;;;;;;;;;;7.39;100.00;100945.81;5057419;28;20406;-73
2022/11/28 11:26:10;;;;;;;;;;;;;;;7.39;100.00;100941.41;5056026;28;19936;-73
2022/11/28 11:28:39;;;;;;;;;;;;;;;7.42;100.00;100943.09;5037659;28;20415;-73
2022/11/28 11:31:06;;;;;;;;;;;;;;;7.43;100.00;100945.69;5052270;28;19933;-75
2022/11/28 11:33:35;;;;;;;;;;;;;;;7.46;100.00;100944.72;5041017;28;19928;-75
2022/11/28 11:36:04;;;;;;;;;;;;;;;7.46;100.00;100942.94;5058099;28;19935;-75
2022/11/28 11:38:32;;;;;;;;;;;;;;;7.51;100.00;100945.44;5050171;28;19924;-75
2022/11/28 11:41:20;;;;;;;;;;;;;;;7.52;100.00;100941.88;5045684;28;20180;-75
2022/11/28 11:43:45;;;;;;;;;;;;;;;7.56;100.00;100948.81;5062104;28;20007;-75
2022/11/28 11:46:14;;;;;;;;;;;;;;;7.59;100.00;100947.84;5055862;28;19939;-75
2022/11/28 11:48:46;;;;;;;;;;;;;;;7.61;100.00;100948.66;5053114;28;19935;-75
2022/11/28 11:51:26;;;;;;;;;;;;;;;7.63;100.00;100949.44;5057637;28;19929;-75
2022/11/28 11:53:59;;;;;;;;;;;;;;;7.62;100.00;100945.09;5056758;28;19934;-76
2022/11/28 11:56:24;;;;;;;;;;;;;;;7.65;100.00;100952.94;5057965;28;19932;-75
2022/11/28 11:58:50;;;;;;;;;;;;;;;7.67;100.00;100953.72;5056368;28;21114;-75
2022/11/28 12:01:16;;;;;;;;;;;;;;;7.66;100.00;100957.28;5054299;28;20019;-75
2022/11/28 12:03:52;;;;;;;;;;;;;;;7.67;100.00;100961.63;5057498;28;19924;-76
2022/11/28 12:06:22;;;;;;;;;;;;;;;7.66;100.00;100951.13;5057775;28;19951;-75
2022/11/28 12:08:51;;;;;;;;;;;;;;;7.66;100.00;100959.91;5041590;28;20379;-76
2022/11/28 12:11:24;;;;;;;;;;;;;;;7.67;100.00;100951.09;5034932;28;21570;-75
2022/11/28 12:13:50;;;;;;;;;;;;;;;7.68;100.00;100947.53;5041959;28;20030;-76
2022/11/28 12:16:19;;;;;;;;;;;;;;;7.69;100.00;100949.25;5033392;28;20463;-75
2022/11/28 12:18:58;;;;;;;;;;;;;;;7.72;100.00;100943.03;5056902;28;19924;-76
2022/11/28 12:21:30;;;;;;;;;;;;;;;7.72;100.00;100951.81;5053899;28;20286;-75
2022/11/28 12:24:05;;;;;;;;;;;;;;;7.72;100.00;100949.19;5041552;28;19932;-75
2022/11/28 12:26:30;;;;;;;;;;;;;;;7.72;100.00;100948.31;5053634;28;19935;-75
2022/11/28 12:28:59;;;;;;;;;;;;;;;7.72;100.00;100950.94;5057944;28;19963;-75
2022/11/28 12:31:36;;;;;;;;;;;;;;;7.70;100.00;100952.78;5049561;28;19928;-75
2022/11/28 12:34:05;;;;;;;;;;;;;;;7.71;100.00;100951.84;5056614;28;19981;-75
2022/11/28 12:36:30;;;;;;;;;;;;;;;7.70;100.00;100956.28;5056546;28;20545;-75
2022/11/28 12:39:11;;;;;;;;;;;;;;;7.68;100.00;100955.44;5053933;28;19924;-75
2022/11/28 12:41:55;;;;;;;;;;;;;;;7.68;100.00;100966.00;5041402;28;20165;-75
2022/11/28 12:44:33;;;;;;;;;;;;;;;7.65;100.00;100966.09;5056272;28;19981;-75